Time;durP1;ratioP1;P1;durP2;ratioP2;P2;SDS_P1;SDS_P2;PMS_P1;PMS_P2;Temp;Humidity;BMP_temperature;BMP_pressure;BME280_temperature;BME280_humidity;BME280_pressure;Samples;Min_cycle;Max_cycle;Signal;HPM_P1;HPM_P2
2021/12/24 00:00:46;;;;;;;41.40;37.20;;;8.40;99.90;;;;;;5044413;28;20740;-71
2021/12/24 00:03:13;;;;;;;43.63;37.57;;;8.30;99.90;;;;;;5043726;28;20992;-70
2021/12/24 00:05:40;;;;;;;40.90;36.57;;;8.30;99.90;;;;;;5042306;28;20464;-70
2021/12/24 00:08:08;;;;;;;44.50;39.70;;;8.30;99.90;;;;;;5044607;28;20502;-70
2021/12/24 00:10:36;;;;;;;46.27;37.80;;;8.30;99.90;;;;;;5043200;28;20467;-70
2021/12/24 00:13:07;;;;;;;49.67;40.53;;;8.30;99.90;;;;;;5040836;28;20490;-71
2021/12/24 00:18:26;;;;;;;48.17;40.47;;;8.30;99.90;;;;;;5040818;28;20448;-71
2021/12/24 00:35:15;;;;;;;46.70;41.43;;;8.30;99.90;;;;;;5078374;28;20462;-70
2021/12/24 00:37:44;;;;;;;48.57;39.20;;;8.30;99.90;;;;;;5078366;28;20465;-70
2021/12/24 00:40:18;;;;;;;43.90;39.17;;;8.40;99.90;;;;;;5073715;28;20458;-69
2021/12/24 00:42:46;;;;;;;45.77;37.97;;;8.40;99.90;;;;;;5075019;28;20537;-71
2021/12/24 00:45:16;;;;;;;52.53;44.50;;;8.30;99.90;;;;;;5074296;28;21329;-72
2021/12/24 00:47:43;;;;;;;49.20;42.27;;;8.40;99.90;;;;;;5077230;28;20480;-72
2021/12/24 00:50:13;;;;;;;51.87;38.40;;;8.40;99.90;;;;;;5067798;28;20461;-69
2021/12/24 00:52:53;;;;;;;44.13;39.60;;;8.30;99.90;;;;;;5064994;28;20945;-69
2021/12/24 00:55:23;;;;;;;43.80;39.33;;;8.30;99.90;;;;;;5073699;28;20466;-72
2021/12/24 00:57:53;;;;;;;49.07;42.77;;;8.30;99.90;;;;;;5072743;28;20459;-70
2021/12/24 01:00:24;;;;;;;47.13;40.97;;;8.40;99.90;;;;;;5075126;28;20467;-71
2021/12/24 01:02:52;;;;;;;42.77;38.10;;;8.40;99.90;;;;;;5076188;28;20485;-71
2021/12/24 01:05:21;;;;;;;39.23;35.20;;;8.30;99.90;;;;;;5069099;28;20455;-71
2021/12/24 01:07:49;;;;;;;45.00;40.17;;;8.40;99.90;;;;;;5063498;28;20473;-69
2021/12/24 01:10:19;;;;;;;49.00;42.77;;;8.30;99.90;;;;;;5072215;28;20467;-70
2021/12/24 01:12:48;;;;;;;41.93;37.50;;;8.40;99.90;;;;;;5069957;28;20462;-70
2021/12/24 01:15:15;;;;;;;56.20;44.33;;;8.40;99.90;;;;;;5069248;28;20476;-70
2021/12/24 01:17:48;;;;;;;44.90;40.10;;;8.40;99.90;;;;;;5070050;28;20454;-69
2021/12/24 01:20:24;;;;;;;45.73;41.00;;;8.40;99.90;;;;;;5068175;28;20462;-71
2021/12/24 01:23:26;;;;;;;51.27;41.20;;;8.40;99.90;;;;;;5070943;28;20495;-69
2021/12/24 01:25:56;;;;;;;45.80;40.87;;;8.40;99.90;;;;;;5069637;28;20482;-69
2021/12/24 01:28:40;;;;;;;44.73;39.93;;;8.40;99.90;;;;;;5068414;28;20467;-69
2021/12/24 01:39:26;;;;;;;44.57;39.93;;;8.50;99.90;;;;;;5055259;28;20471;-71
2021/12/24 01:44:39;;;;;;;46.67;40.23;;;8.50;99.90;;;;;;5062773;28;20454;-71
2021/12/24 01:47:08;;;;;;;44.50;38.80;;;8.50;99.90;;;;;;5064700;28;21211;-71
2021/12/24 01:49:35;;;;;;;51.40;42.50;;;8.60;99.90;;;;;;5053976;28;20491;-71
2021/12/24 01:52:06;;;;;;;48.07;42.70;;;8.60;99.90;;;;;;5056357;28;20468;-71
2021/12/24 01:54:33;;;;;;;46.63;40.33;;;8.60;99.90;;;;;;5055817;28;20459;-71
2021/12/24 01:57:00;;;;;;;50.47;41.60;;;8.60;99.90;;;;;;5056444;28;20563;-71
2021/12/24 01:59:27;;;;;;;44.77;39.97;;;8.60;99.90;;;;;;5055756;28;20506;-71
2021/12/24 02:01:55;;;;;;;50.13;42.13;;;8.60;99.90;;;;;;5055793;28;20545;-71
2021/12/24 02:04:22;;;;;;;47.03;41.80;;;8.70;99.90;;;;;;5050620;28;20488;-69
2021/12/24 02:06:50;;;;;;;48.23;43.00;;;8.70;99.90;;;;;;5057950;28;20460;-71
2021/12/24 02:09:17;;;;;;;49.17;41.40;;;8.70;99.90;;;;;;5054525;28;21123;-69
2021/12/24 02:11:44;;;;;;;50.30;43.63;;;8.70;99.90;;;;;;5055357;28;20468;-71
2021/12/24 02:14:16;;;;;;;53.00;41.90;;;8.70;99.90;;;;;;5058612;28;20469;-71
2021/12/24 02:16:55;;;;;;;44.60;39.80;;;8.70;99.90;;;;;;5062718;28;20454;-70
2021/12/24 02:30:41;;;;;;;48.43;39.27;;;8.80;99.90;;;;;;5061580;28;20538;-69
2021/12/24 02:33:08;;;;;;;42.03;38.00;;;8.80;99.90;;;;;;5058115;28;20469;-72
2021/12/24 02:35:35;;;;;;;45.27;36.50;;;8.80;99.90;;;;;;5052663;28;20467;-71
2021/12/24 02:38:05;;;;;;;36.80;33.30;;;8.80;99.90;;;;;;5053138;28;20462;-69
2021/12/24 02:40:32;;;;;;;42.67;38.07;;;8.80;99.90;;;;;;5055988;28;21379;-70
2021/12/24 02:42:59;;;;;;;44.33;39.33;;;8.80;99.90;;;;;;5055421;28;20481;-70
2021/12/24 02:45:33;;;;;;;42.87;36.20;;;8.80;99.90;;;;;;5057327;28;20463;-69
2021/12/24 02:48:34;;;;;;;45.00;38.30;;;8.80;99.90;;;;;;5060119;28;20490;-73
2021/12/24 02:53:58;;;;;;;43.60;34.57;;;8.80;99.90;;;;;;5056366;28;20972;-70
2021/12/24 02:56:30;;;;;;;37.00;31.40;;;8.80;99.90;;;;;;5053329;28;20461;-70
2021/12/24 02:58:59;;;;;;;40.67;34.87;;;8.80;99.90;;;;;;5052194;28;20457;-70
2021/12/24 03:01:29;;;;;;;45.67;36.57;;;8.90;99.90;;;;;;5058421;28;20577;-71
2021/12/24 03:03:56;;;;;;;46.83;34.30;;;8.90;99.90;;;;;;5054488;28;20483;-69
2021/12/24 03:06:26;;;;;;;39.77;30.80;;;8.90;99.90;;;;;;5052317;28;20463;-69
2021/12/24 03:08:55;;;;;;;40.93;31.80;;;8.80;99.90;;;;;;5055415;28;20470;-71
2021/12/24 03:11:24;;;;;;;42.13;32.77;;;8.80;99.90;;;;;;5057067;28;20553;-71
2021/12/24 03:13:52;;;;;;;39.83;35.47;;;8.80;99.90;;;;;;5049967;28;20457;-72
2021/12/24 03:16:20;;;;;;;47.20;34.70;;;8.80;99.90;;;;;;5055141;28;20465;-70
2021/12/24 03:18:47;;;;;;;46.77;36.47;;;8.70;99.90;;;;;;5049153;28;20478;-69
2021/12/24 03:21:18;;;;;;;39.77;34.10;;;8.70;99.90;;;;;;5053532;28;21075;-69
2021/12/24 03:24:33;;;;;;;37.53;32.93;;;8.70;99.90;;;;;;5056816;28;20821;-69
2021/12/24 03:26:37;;;;;;;44.53;36.80;;;8.70;99.90;;;;;;5056505;28;20515;-71
2021/12/24 03:29:05;;;;;;;46.00;34.70;;;8.60;99.90;;;;;;5053558;28;20455;-71
2021/12/24 03:31:32;;;;;;;34.30;30.90;;;8.70;99.90;;;;;;5053397;28;20695;-69
2021/12/24 03:33:59;;;;;;;37.30;33.13;;;8.70;99.90;;;;;;5054905;28;20969;-70
2021/12/24 03:36:27;;;;;;;34.97;31.30;;;8.70;99.90;;;;;;5053892;28;20462;-69
2021/12/24 03:38:55;;;;;;;39.37;35.00;;;8.70;99.90;;;;;;5052657;28;20459;-69
2021/12/24 03:41:23;;;;;;;34.80;31.17;;;8.70;99.90;;;;;;5053629;28;20458;-69
2021/12/24 03:43:53;;;;;;;39.13;34.97;;;8.70;99.90;;;;;;5055477;28;20505;-69
2021/12/24 03:46:28;;;;;;;38.93;32.40;;;8.70;99.90;;;;;;5055204;28;21158;-73
2021/12/24 03:48:58;;;;;;;39.80;35.10;;;8.70;99.90;;;;;;5055485;28;20498;-72
2021/12/24 03:51:40;;;;;;;42.43;35.30;;;8.80;99.90;;;;;;5055041;28;20899;-70
2021/12/24 03:56:52;;;;;;;36.60;32.70;;;8.80;99.90;;;;;;5056906;28;20454;-70
2021/12/24 03:59:20;;;;;;;38.50;31.33;;;8.80;99.90;;;;;;5054907;28;20462;-70
2021/12/24 04:01:47;;;;;;;49.03;34.20;;;8.80;99.90;;;;;;5054368;28;20471;-70
2021/12/24 04:04:14;;;;;;;42.40;34.13;;;8.80;99.90;;;;;;5056561;28;20489;-70
2021/12/24 04:06:41;;;;;;;27.73;25.40;;;8.80;99.90;;;;;;5051946;28;20469;-70
2021/12/24 04:09:09;;;;;;;44.70;31.80;;;8.80;99.90;;;;;;5056980;28;20566;-70
2021/12/24 04:11:38;;;;;;;40.47;28.77;;;8.90;99.90;;;;;;5061606;28;20470;-71
2021/12/24 04:14:05;;;;;;;35.37;28.73;;;8.90;99.90;;;;;;5055833;28;20461;-70
2021/12/24 04:16:34;;;;;;;42.30;31.13;;;8.90;99.90;;;;;;5057978;28;20465;-69
2021/12/24 04:19:19;;;;;;;35.97;30.97;;;8.90;99.90;;;;;;5052472;28;20544;-69
2021/12/24 04:27:15;;;;;;;38.40;29.07;;;9.00;99.90;;;;;;5054536;28;20487;-70
2021/12/24 04:29:42;;;;;;;36.87;29.67;;;9.00;99.90;;;;;;5059787;28;20462;-69
2021/12/24 04:32:14;;;;;;;38.40;28.27;;;9.00;99.90;;;;;;5052956;28;20464;-72
2021/12/24 04:34:45;;;;;;;36.10;30.30;;;9.00;99.90;;;;;;5051016;28;20470;-70
2021/12/24 04:37:55;;;;;;;36.20;31.10;;;9.10;99.90;;;;;;5051981;28;20469;-70
2021/12/24 04:51:19;;;;;;;45.90;30.23;;;9.00;99.90;;;;;;5048273;28;20576;-72
2021/12/24 05:02:13;;;;;;;32.00;27.10;;;9.00;99.90;;;;;;5051090;28;20463;-69
2021/12/24 05:04:50;;;;;;;36.87;30.03;;;9.00;99.90;;;;;;5053177;28;20497;-70
2021/12/24 05:07:38;;;;;;;47.13;34.30;;;9.10;99.90;;;;;;5047913;28;20869;-69
2021/12/24 05:10:06;;;;;;;38.10;29.87;;;9.00;99.90;;;;;;5055243;28;21100;-69
2021/12/24 05:12:34;;;;;;;40.73;31.50;;;8.90;99.90;;;;;;5056535;28;20460;-69
2021/12/24 05:15:01;;;;;;;45.93;30.67;;;9.00;99.90;;;;;;5058120;28;20499;-72
2021/12/24 05:17:34;;;;;;;38.40;30.80;;;9.00;99.90;;;;;;5054261;28;20459;-73
2021/12/24 05:22:47;;;;;;;35.37;28.87;;;9.00;99.90;;;;;;5056960;28;21020;-69
2021/12/24 05:25:14;;;;;;;38.67;31.33;;;9.00;99.90;;;;;;5057155;28;20492;-69
2021/12/24 05:27:41;;;;;;;41.47;31.83;;;9.10;99.90;;;;;;5057133;28;20886;-69
2021/12/24 05:30:08;;;;;;;52.23;35.00;;;9.00;99.90;;;;;;5057029;28;20504;-69
2021/12/24 05:32:36;;;;;;;45.60;33.67;;;9.10;99.90;;;;;;5059532;28;20497;-69
2021/12/24 05:35:05;;;;;;;45.00;32.83;;;9.10;99.90;;;;;;5060054;28;20464;-69
2021/12/24 05:37:32;;;;;;;40.27;29.77;;;9.00;99.90;;;;;;5058431;28;20460;-72
2021/12/24 05:39:59;;;;;;;35.77;27.80;;;9.00;99.90;;;;;;5054601;28;20495;-69
2021/12/24 05:42:27;;;;;;;45.23;32.97;;;9.10;99.90;;;;;;5049676;28;20466;-69
2021/12/24 05:44:57;;;;;;;40.17;31.07;;;9.00;99.90;;;;;;5056465;28;21000;-69
2021/12/24 05:47:24;;;;;;;42.43;31.00;;;9.10;99.90;;;;;;5059126;28;20462;-70
2021/12/24 05:49:51;;;;;;;43.30;29.30;;;9.10;99.90;;;;;;5056266;28;20466;-69
2021/12/24 05:52:19;;;;;;;31.20;25.70;;;9.10;99.90;;;;;;5062312;28;20833;-70
2021/12/24 05:54:46;;;;;;;36.87;29.63;;;9.00;99.90;;;;;;5058802;28;20467;-69
2021/12/24 05:57:13;;;;;;;35.73;27.70;;;9.00;99.90;;;;;;5058916;28;20941;-70
2021/12/24 05:59:40;;;;;;;41.60;30.17;;;9.00;99.90;;;;;;5053913;28;20488;-72
2021/12/24 06:02:07;;;;;;;32.40;27.33;;;9.10;99.90;;;;;;5056263;28;20464;-68
2021/12/24 06:04:34;;;;;;;43.23;29.80;;;9.10;99.90;;;;;;5052895;28;21002;-69
2021/12/24 06:07:01;;;;;;;45.30;29.97;;;9.10;99.90;;;;;;5055657;28;20804;-71
2021/12/24 06:09:29;;;;;;;43.07;30.47;;;9.10;99.90;;;;;;5049030;28;20463;-68
2021/12/24 06:11:56;;;;;;;42.77;29.80;;;9.10;99.90;;;;;;5059617;28;20864;-71
2021/12/24 06:14:23;;;;;;;53.60;34.00;;;9.10;99.90;;;;;;5057669;28;20979;-70
2021/12/24 06:16:59;;;;;;;51.90;35.70;;;9.10;99.90;;;;;;5054745;28;20457;-72
2021/12/24 06:19:26;;;;;;;47.33;32.30;;;9.10;99.90;;;;;;5058636;28;20453;-71
2021/12/24 06:21:53;;;;;;;45.03;35.20;;;9.00;99.90;;;;;;5049297;28;20461;-72
2021/12/24 06:24:20;;;;;;;46.20;31.83;;;9.00;99.90;;;;;;5055460;28;20491;-71
2021/12/24 06:26:49;;;;;;;35.63;30.10;;;9.00;99.90;;;;;;5056662;28;20955;-71
2021/12/24 06:29:16;;;;;;;46.73;31.77;;;9.00;99.90;;;;;;5053361;28;20458;-72
2021/12/24 06:31:43;;;;;;;45.30;32.63;;;9.00;99.90;;;;;;5055419;28;20493;-70
2021/12/24 06:34:11;;;;;;;33.50;27.47;;;9.00;99.90;;;;;;5052168;28;20466;-71
2021/12/24 06:36:41;;;;;;;49.90;35.03;;;9.00;99.90;;;;;;5059703;28;20989;-70
2021/12/24 06:39:08;;;;;;;56.03;38.03;;;8.90;99.90;;;;;;5048250;28;20551;-73
2021/12/24 06:41:36;;;;;;;51.97;37.23;;;8.90;99.90;;;;;;5054502;28;20474;-71
2021/12/24 06:44:09;;;;;;;48.53;30.50;;;9.00;99.90;;;;;;5056617;28;20491;-70
2021/12/24 06:46:35;;;;;;;53.87;32.17;;;8.90;99.90;;;;;;5056066;28;20460;-71
2021/12/24 06:49:03;;;;;;;41.87;29.07;;;8.90;99.90;;;;;;5059234;28;20486;-73
2021/12/24 06:51:30;;;;;;;38.20;28.70;;;8.90;99.90;;;;;;5057622;28;20473;-71
2021/12/24 06:53:57;;;;;;;38.90;30.50;;;8.90;99.90;;;;;;5054244;28;20456;-74
2021/12/24 06:56:24;;;;;;;44.57;32.07;;;8.90;99.90;;;;;;5055507;28;20476;-71
2021/12/24 06:58:51;;;;;;;47.63;29.70;;;8.90;99.90;;;;;;5048458;28;20536;-71
2021/12/24 07:01:20;;;;;;;47.43;32.10;;;8.90;99.90;;;;;;5060958;28;20470;-69
2021/12/24 07:03:46;;;;;;;40.27;31.03;;;8.90;99.90;;;;;;5048323;28;20488;-68
2021/12/24 07:06:14;;;;;;;43.50;31.23;;;8.90;99.90;;;;;;5055181;28;20467;-70
2021/12/24 07:08:41;;;;;;;43.40;33.17;;;8.90;99.90;;;;;;5054295;28;20552;-68
2021/12/24 07:11:08;;;;;;;39.03;29.87;;;8.80;99.90;;;;;;5049403;28;20498;-72
2021/12/24 07:13:35;;;;;;;40.93;29.77;;;8.90;99.90;;;;;;5053114;28;20923;-68
2021/12/24 07:16:02;;;;;;;38.47;27.90;;;8.90;99.90;;;;;;5056267;28;20460;-68
2021/12/24 07:18:31;;;;;;;41.73;29.50;;;8.80;99.90;;;;;;5054823;28;20831;-69
2021/12/24 07:20:58;;;;;;;47.23;31.53;;;8.90;99.90;;;;;;5058751;28;20455;-68
2021/12/24 07:23:25;;;;;;;48.63;31.73;;;8.80;99.90;;;;;;5052277;28;20491;-69
2021/12/24 07:25:52;;;;;;;45.10;28.53;;;8.80;99.90;;;;;;5052186;28;20502;-68
2021/12/24 07:28:19;;;;;;;50.77;30.83;;;8.80;99.90;;;;;;5055686;28;20505;-71
2021/12/24 07:30:46;;;;;;;47.23;29.57;;;8.70;99.90;;;;;;5057959;28;20453;-71
2021/12/24 07:33:14;;;;;;;37.33;26.60;;;8.60;99.90;;;;;;5058522;28;20467;-70
2021/12/24 07:35:43;;;;;;;51.90;30.13;;;8.70;99.90;;;;;;5054592;28;21072;-69
2021/12/24 07:38:13;;;;;;;42.27;29.67;;;8.70;99.90;;;;;;5053852;28;20833;-69
2021/12/24 07:40:40;;;;;;;45.63;30.10;;;8.70;99.90;;;;;;5053677;28;20520;-69
2021/12/24 07:43:07;;;;;;;46.60;30.50;;;8.70;99.90;;;;;;5058677;28;20469;-67
2021/12/24 07:45:34;;;;;;;45.90;30.60;;;8.70;99.90;;;;;;5053179;28;21039;-72
2021/12/24 07:48:13;;;;;;;37.50;25.50;;;8.80;99.90;;;;;;5057458;28;20487;-69
2021/12/24 07:53:27;;;;;;;33.73;27.30;;;8.80;99.90;;;;;;5050629;28;20802;-70
2021/12/24 07:55:56;;;;;;;45.00;29.03;;;8.80;99.90;;;;;;5054230;28;20458;-69
2021/12/24 07:58:23;;;;;;;49.33;31.40;;;8.80;99.90;;;;;;5050936;28;20449;-70
2021/12/24 08:00:51;;;;;;;42.57;30.97;;;8.80;99.90;;;;;;5057474;28;20484;-70
2021/12/24 08:03:18;;;;;;;38.07;28.00;;;8.90;99.90;;;;;;5056076;28;20987;-72
2021/12/24 08:05:48;;;;;;;51.97;28.83;;;9.00;99.90;;;;;;5050221;28;20481;-69
2021/12/24 08:08:16;;;;;;;42.87;29.97;;;8.90;99.90;;;;;;5053339;28;20497;-69
2021/12/24 08:10:44;;;;;;;38.47;29.07;;;8.90;99.90;;;;;;5059536;28;20467;-69
2021/12/24 08:13:11;;;;;;;39.57;29.40;;;9.00;99.90;;;;;;5056278;28;20814;-69
2021/12/24 08:15:38;;;;;;;46.50;29.07;;;9.00;99.90;;;;;;5055880;28;20464;-69
2021/12/24 08:18:05;;;;;;;45.80;28.63;;;9.00;99.90;;;;;;5053504;28;20459;-68
2021/12/24 08:20:32;;;;;;;50.83;30.37;;;9.00;99.90;;;;;;5053138;28;21405;-72
2021/12/24 08:22:59;;;;;;;37.30;26.33;;;9.00;99.90;;;;;;5054216;28;20493;-69
2021/12/24 08:25:26;;;;;;;44.33;27.33;;;9.00;99.90;;;;;;5052619;28;20499;-69
2021/12/24 08:27:55;;;;;;;40.63;27.23;;;9.00;99.90;;;;;;5052666;28;20522;-68
2021/12/24 08:30:22;;;;;;;37.33;26.13;;;9.00;99.90;;;;;;5050626;28;20462;-69
2021/12/24 08:32:48;;;;;;;40.73;27.00;;;9.00;99.90;;;;;;5048197;28;20469;-69
2021/12/24 08:35:20;;;;;;;40.13;28.27;;;9.00;99.90;;;;;;5056436;28;20467;-69
2021/12/24 08:37:47;;;;;;;36.00;25.43;;;9.00;99.90;;;;;;5052279;28;20471;-69
2021/12/24 08:40:15;;;;;;;33.90;28.70;;;9.00;99.90;;;;;;5047015;28;20464;-70
2021/12/24 08:42:42;;;;;;;35.43;25.40;;;9.10;99.90;;;;;;5052166;28;20473;-72
2021/12/24 08:45:11;;;;;;;34.30;25.07;;;9.10;99.90;;;;;;5058001;28;20509;-69
2021/12/24 08:47:38;;;;;;;40.73;28.30;;;9.20;99.90;;;;;;5052553;28;20905;-72
2021/12/24 08:50:05;;;;;;;37.07;26.63;;;9.20;99.90;;;;;;5055493;28;20477;-69
2021/12/24 08:52:32;;;;;;;31.67;25.97;;;9.20;99.90;;;;;;5050907;28;20464;-69
2021/12/24 08:54:59;;;;;;;35.33;27.40;;;9.20;99.90;;;;;;5058088;28;20938;-69
2021/12/24 08:57:26;;;;;;;41.70;26.03;;;9.20;99.90;;;;;;5056623;28;20458;-71
2021/12/24 08:59:53;;;;;;;39.17;25.57;;;9.20;99.90;;;;;;5056967;28;20490;-70
2021/12/24 09:02:21;;;;;;;34.23;26.30;;;9.20;99.90;;;;;;5059058;28;20949;-70
2021/12/24 09:04:48;;;;;;;32.03;25.27;;;9.20;99.90;;;;;;5058757;28;20491;-69
2021/12/24 09:07:15;;;;;;;30.57;25.00;;;9.10;99.90;;;;;;5057096;28;20954;-69
2021/12/24 09:09:42;;;;;;;29.90;24.03;;;9.10;99.90;;;;;;5066829;28;20997;-72
2021/12/24 09:12:09;;;;;;;34.40;23.30;;;9.10;99.90;;;;;;5060615;28;20646;-69
2021/12/24 09:14:36;;;;;;;31.93;21.60;;;9.10;99.90;;;;;;5056729;28;20467;-70
2021/12/24 09:17:04;;;;;;;33.33;23.03;;;9.10;99.90;;;;;;5056662;28;20467;-69
2021/12/24 09:19:34;;;;;;;36.40;23.87;;;9.20;99.90;;;;;;5053796;28;20466;-69
2021/12/24 09:22:01;;;;;;;31.90;23.80;;;9.20;99.90;;;;;;5072812;28;20479;-69
2021/12/24 09:24:30;;;;;;;32.40;21.60;;;9.20;99.90;;;;;;5053329;28;20533;-69
2021/12/24 09:26:57;;;;;;;34.43;22.50;;;9.20;99.90;;;;;;5058912;28;20465;-71
2021/12/24 09:29:24;;;;;;;27.93;23.07;;;9.20;99.90;;;;;;5051413;28;20503;-73
2021/12/24 09:31:51;;;;;;;28.37;25.13;;;9.10;99.90;;;;;;5057403;28;20489;-73
2021/12/24 09:34:18;;;;;;;35.80;23.60;;;9.10;99.90;;;;;;5055670;28;20467;-71
2021/12/24 09:36:47;;;;;;;30.53;25.23;;;9.10;99.90;;;;;;5053889;28;20466;-69
2021/12/24 09:39:14;;;;;;;28.27;22.50;;;9.20;99.90;;;;;;5048403;28;20966;-69
2021/12/24 09:41:41;;;;;;;33.77;23.57;;;9.10;99.90;;;;;;5043076;28;20469;-70
2021/12/24 09:44:08;;;;;;;34.93;23.10;;;9.20;99.90;;;;;;5054238;28;20467;-69
2021/12/24 09:46:40;;;;;;;36.47;25.57;;;9.20;99.90;;;;;;5055014;28;20495;-71
2021/12/24 09:49:08;;;;;;;32.60;24.37;;;9.20;99.90;;;;;;5053114;28;20478;-72
2021/12/24 09:51:37;;;;;;;30.57;24.47;;;9.30;99.90;;;;;;5039840;28;20559;-70
2021/12/24 09:54:10;;;;;;;38.70;25.23;;;9.40;99.90;;;;;;5052043;28;20554;-73
2021/12/24 09:56:37;;;;;;;33.00;25.97;;;9.40;99.90;;;;;;5052223;28;20481;-70
2021/12/24 09:59:04;;;;;;;23.00;20.33;;;9.40;99.90;;;;;;5051614;28;20550;-69
2021/12/24 10:01:33;;;;;;;33.40;26.70;;;9.40;99.90;;;;;;5055066;28;20466;-69
2021/12/24 10:04:09;;;;;;;35.00;24.63;;;9.40;99.90;;;;;;5048645;28;20469;-71
2021/12/24 10:06:37;;;;;;;30.97;24.97;;;9.60;99.90;;;;;;5050147;28;21137;-69
2021/12/24 10:09:09;;;;;;;32.70;25.10;;;9.60;99.90;;;;;;5053275;28;20990;-68
2021/12/24 10:11:47;;;;;;;40.57;24.67;;;9.60;99.90;;;;;;5057704;28;20504;-69
2021/12/24 10:14:15;;;;;;;28.50;23.70;;;9.50;99.90;;;;;;5051913;28;20476;-69
2021/12/24 10:16:46;;;;;;;29.80;22.53;;;9.50;99.90;;;;;;5049447;28;20472;-69
2021/12/24 10:19:14;;;;;;;26.13;21.20;;;9.40;99.90;;;;;;5050688;28;20464;-70
2021/12/24 10:21:44;;;;;;;31.00;23.13;;;9.30;99.90;;;;;;5045049;28;20476;-72
2021/12/24 10:24:17;;;;;;;38.23;24.90;;;9.40;99.90;;;;;;5048153;28;20840;-69
2021/12/24 10:26:47;;;;;;;36.87;22.90;;;9.50;99.90;;;;;;5045693;28;20506;-69
2021/12/24 10:29:16;;;;;;;30.90;22.43;;;9.50;99.90;;;;;;5053613;28;20462;-71
2021/12/24 10:31:45;;;;;;;31.80;25.00;;;9.50;99.90;;;;;;5052472;28;20949;-72
2021/12/24 10:34:19;;;;;;;30.73;25.03;;;9.50;99.90;;;;;;5046645;28;20458;-69
2021/12/24 10:37:12;;;;;;;34.13;23.07;;;9.50;99.90;;;;;;5055139;28;20474;-71
2021/12/24 10:39:52;;;;;;;28.67;23.60;;;9.60;99.90;;;;;;5038727;28;20573;-70
2021/12/24 10:42:26;;;;;;;26.83;22.70;;;9.60;99.90;;;;;;5054583;28;20924;-72
2021/12/24 10:44:55;;;;;;;23.73;21.10;;;9.70;99.90;;;;;;5049041;28;20466;-71
2021/12/24 10:47:25;;;;;;;25.87;20.60;;;9.80;99.90;;;;;;5048696;28;20470;-70
2021/12/24 10:50:06;;;;;;;23.83;21.43;;;9.80;99.90;;;;;;5047683;28;20475;-71
2021/12/24 10:52:58;;;;;;;34.20;22.73;;;9.80;99.90;;;;;;5049956;28;20466;-69
2021/12/24 10:55:32;;;;;;;38.83;19.83;;;9.70;99.90;;;;;;5054798;28;20495;-70
2021/12/24 10:58:00;;;;;;;39.30;23.67;;;9.60;99.90;;;;;;5047912;28;20728;-72
2021/12/24 11:00:31;;;;;;;28.90;23.23;;;9.70;99.90;;;;;;5051968;28;20473;-69
2021/12/24 11:03:00;;;;;;;33.50;23.00;;;9.70;99.90;;;;;;5054288;28;20465;-69
2021/12/24 11:05:38;;;;;;;33.43;23.70;;;9.70;99.90;;;;;;5054070;28;20488;-70
2021/12/24 11:08:08;;;;;;;36.67;22.30;;;9.70;99.90;;;;;;5046933;28;20466;-70
2021/12/24 11:10:38;;;;;;;31.27;22.37;;;9.60;99.90;;;;;;5046846;28;20966;-70
2021/12/24 11:13:10;;;;;;;30.00;23.60;;;9.70;99.90;;;;;;5046071;28;20474;-70
2021/12/24 11:15:39;;;;;;;29.63;24.90;;;9.70;99.90;;;;;;5051840;28;20512;-71
2021/12/24 11:18:09;;;;;;;30.90;23.70;;;9.90;99.90;;;;;;5055109;28;20467;-70
2021/12/24 11:20:36;;;;;;;30.17;23.37;;;9.90;99.90;;;;;;5052031;28;20467;-69
2021/12/24 11:23:06;;;;;;;41.30;23.03;;;10.00;99.90;;;;;;5051967;28;20505;-69
2021/12/24 11:25:36;;;;;;;26.13;21.23;;;10.00;99.90;;;;;;5048199;28;20498;-70
2021/12/24 11:28:03;;;;;;;33.47;22.90;;;10.00;99.90;;;;;;5047339;28;20842;-70
2021/12/24 11:30:32;;;;;;;25.20;21.73;;;10.10;99.90;;;;;;5043955;28;20465;-69
2021/12/24 11:32:59;;;;;;;26.43;22.37;;;10.20;99.90;;;;;;5050868;28;20469;-72
2021/12/24 11:35:27;;;;;;;26.73;20.20;;;10.40;99.90;;;;;;5046956;28;20470;-69
2021/12/24 11:37:54;;;;;;;27.20;21.17;;;10.40;99.90;;;;;;5045516;28;20993;-71
2021/12/24 11:40:24;;;;;;;25.17;21.90;;;10.40;99.90;;;;;;5050153;28;20559;-70
2021/12/24 11:42:59;;;;;;;32.23;21.20;;;10.50;99.90;;;;;;5051486;28;20485;-68
2021/12/24 11:45:27;;;;;;;29.40;21.67;;;10.50;99.90;;;;;;5053769;28;21009;-70
2021/12/24 11:47:54;;;;;;;24.80;20.67;;;10.30;99.90;;;;;;5043235;28;20491;-71
2021/12/24 11:50:23;;;;;;;27.00;21.50;;;10.30;99.90;;;;;;5052360;28;21028;-72
2021/12/24 11:52:52;;;;;;;35.13;23.40;;;10.50;99.90;;;;;;5050423;28;20463;-70
2021/12/24 11:55:20;;;;;;;28.00;22.47;;;10.20;99.90;;;;;;5050430;28;20471;-71
2021/12/24 11:57:53;;;;;;;29.13;23.53;;;10.30;99.90;;;;;;5050512;28;21000;-71
2021/12/24 12:00:30;;;;;;;30.60;21.00;;;10.40;99.90;;;;;;5048926;28;20550;-72
2021/12/24 12:02:57;;;;;;;23.13;20.33;;;10.50;99.90;;;;;;5049750;28;20933;-73
2021/12/24 12:05:32;;;;;;;21.50;19.33;;;10.50;99.90;;;;;;5049786;28;21038;-71
2021/12/24 12:08:32;;;;;;;30.23;18.63;;;10.30;99.90;;;;;;5051222;28;20863;-71
2021/12/24 12:11:01;;;;;;;24.10;19.57;;;10.20;99.90;;;;;;5051904;28;20469;-72
2021/12/24 12:13:47;;;;;;;23.00;19.33;;;10.20;99.90;;;;;;5046385;28;20460;-70
2021/12/24 12:16:16;;;;;;;25.77;18.13;;;10.20;99.90;;;;;;5048710;28;20555;-70
2021/12/24 12:18:47;;;;;;;21.23;19.20;;;10.10;99.90;;;;;;5049814;28;20489;-70
2021/12/24 12:21:18;;;;;;;23.27;20.37;;;10.20;99.90;;;;;;5044966;28;20492;-70
2021/12/24 12:24:56;;;;;;;24.77;19.23;;;10.20;99.90;;;;;;5057504;28;21165;-71
2021/12/24 12:26:41;;;;;;;20.97;17.63;;;10.30;99.90;;;;;;5053572;28;20954;-70
2021/12/24 12:29:22;;;;;;;31.77;19.80;;;10.30;99.90;;;;;;5044161;28;20524;-73
2021/12/24 12:31:52;;;;;;;22.80;18.30;;;10.30;99.90;;;;;;5046194;28;20475;-73
2021/12/24 12:34:50;;;;;;;27.80;18.80;;;10.40;99.90;;;;;;5051052;28;20904;-74
2021/12/24 12:37:20;;;;;;;23.43;20.37;;;10.40;99.90;;;;;;5043628;28;20462;-70
2021/12/24 12:39:48;;;;;;;21.50;19.40;;;10.30;99.90;;;;;;5050776;28;20478;-70
2021/12/24 12:42:17;;;;;;;23.93;19.40;;;10.30;99.90;;;;;;5054413;28;20470;-70
2021/12/24 12:44:48;;;;;;;26.40;19.13;;;10.30;99.90;;;;;;5048853;28;20983;-70
2021/12/24 12:47:18;;;;;;;29.80;20.90;;;10.40;99.90;;;;;;5047201;28;21108;-70
2021/12/24 12:49:47;;;;;;;25.53;19.70;;;10.30;99.90;;;;;;5046154;28;20479;-69
2021/12/24 12:52:31;;;;;;;21.57;19.30;;;10.30;99.90;;;;;;5048042;28;20464;-70
2021/12/24 12:54:58;;;;;;;22.80;19.40;;;10.20;99.90;;;;;;5052778;28;20458;-69
2021/12/24 12:57:30;;;;;;;25.90;20.40;;;10.20;99.90;;;;;;5045580;28;20555;-71
2021/12/24 13:00:18;;;;;;;25.07;20.33;;;10.20;99.90;;;;;;5046864;28;20463;-70
2021/12/24 13:03:08;;;;;;;25.63;20.77;;;10.20;99.90;;;;;;5040551;28;20490;-70
2021/12/24 13:06:08;;;;;;;27.30;21.43;;;10.10;99.90;;;;;;5049430;28;20977;-70
2021/12/24 13:08:38;;;;;;;29.17;20.80;;;10.10;99.90;;;;;;5051140;28;20473;-72
2021/12/24 13:11:07;;;;;;;22.37;19.90;;;10.20;99.90;;;;;;5048387;28;20463;-69
2021/12/24 13:13:44;;;;;;;22.10;19.73;;;10.20;99.90;;;;;;5044786;28;20467;-70
2021/12/24 13:16:17;;;;;;;27.47;20.47;;;10.10;99.90;;;;;;5051240;28;20469;-72
2021/12/24 13:18:53;;;;;;;22.47;19.63;;;10.00;99.90;;;;;;5048676;28;20474;-72
2021/12/24 13:24:12;;;;;;;23.63;20.83;;;9.80;99.90;;;;;;5047786;28;20988;-69
2021/12/24 13:26:39;;;;;;;22.20;19.90;;;9.90;99.90;;;;;;5045265;28;20499;-71
2021/12/24 13:29:12;;;;;;;21.93;19.33;;;9.80;99.90;;;;;;5048841;28;20455;-69
2021/12/24 13:31:42;;;;;;;22.40;20.07;;;9.80;99.90;;;;;;5050362;28;21001;-70
2021/12/24 13:34:14;;;;;;;33.63;21.03;;;9.90;99.90;;;;;;5052338;28;20470;-69
2021/12/24 13:36:41;;;;;;;28.07;21.40;;;9.80;99.90;;;;;;5053117;28;20463;-69
2021/12/24 13:39:10;;;;;;;28.43;20.50;;;9.80;99.90;;;;;;5049158;28;20467;-73
2021/12/24 13:41:38;;;;;;;22.47;19.97;;;9.80;99.90;;;;;;5052366;28;20461;-70
2021/12/24 13:44:05;;;;;;;21.77;18.57;;;9.80;99.90;;;;;;5048756;28;20477;-72
2021/12/24 13:46:36;;;;;;;23.60;19.10;;;9.70;99.90;;;;;;5051447;28;20485;-69
2021/12/24 13:49:24;;;;;;;24.03;20.63;;;9.80;99.90;;;;;;5052681;28;20500;-73
2021/12/24 13:54:37;;;;;;;29.90;20.23;;;9.70;99.90;;;;;;5053318;28;20474;-72
2021/12/24 13:57:06;;;;;;;23.23;19.47;;;9.70;99.90;;;;;;5056991;28;20836;-70
2021/12/24 13:59:34;;;;;;;24.33;21.83;;;9.60;99.90;;;;;;5056424;28;21019;-70
2021/12/24 14:02:08;;;;;;;21.57;19.37;;;9.60;99.90;;;;;;5053463;28;20472;-68
2021/12/24 14:04:36;;;;;;;23.20;20.40;;;9.60;99.90;;;;;;5053063;28;20554;-72
2021/12/24 14:07:04;;;;;;;31.57;22.77;;;9.60;99.90;;;;;;5051474;28;20518;-69
2021/12/24 14:09:34;;;;;;;23.30;19.57;;;9.60;99.90;;;;;;5051102;28;20463;-72
2021/12/24 14:12:02;;;;;;;27.90;20.17;;;9.60;99.90;;;;;;5050522;28;20966;-69